Rossville, Kansas
Current Conditions -  °F | °C
As of 5:53 PM on Friday 21 Nov 2014 (Local Time) from KTOP Reporting Station
Haze Haze  
Wind Chill: 40°   Ceiling: 1200
Heat Index: 40°   Visibility: 5mi
Dew Point: 38°   Wind: 3mph
Humidity: 93%   Direction: 70°ENE
Pressure: 30.07"   Gusts: NA
Location:  39.14°N, 95.95°W
Report Text: KTOP 212353Z 07003KT 5SM BR OVC012 04/03 A3007 RMK AO2 SLP191 60003 T00440033 10044 20033 56009
Loading
Personal Weather Stations






























Interactive Weather Map New forecast layout! Learn more

10-Day Weather Forecast

Advertisements
Track Severe Weather on mobile